Time;durP1;ratioP1;P1;durP2;ratioP2;P2;SDS_P1;SDS_P2;PMS_P1;PMS_P2;Temp;Humidity;BMP_temperature;BMP_pressure;BME280_temperature;BME280_humidity;BME280_pressure;Samples;Min_cycle;Max_cycle;Signal;HPM_P1;HPM_P2
2023/08/08 00:00:38;;;;;;;42.63;38.55;;;;;;;18.76;100.00;100816.50;5046666;28;20079;-79
2023/08/08 00:03:05;;;;;;;39.47;35.60;;;;;;;18.75;100.00;100826.41;5050841;28;20037;-80
2023/08/08 00:05:32;;;;;;;35.38;31.88;;;;;;;18.18;100.00;100821.59;5052194;28;20076;-79
2023/08/08 00:08:00;;;;;;;39.55;35.85;;;;;;;18.82;100.00;100817.31;5051525;28;20436;-80
2023/08/08 00:10:27;;;;;;;37.75;34.10;;;;;;;18.76;100.00;100825.38;5051497;28;20757;-87
2023/08/08 00:12:54;;;;;;;40.08;36.17;;;;;;;19.11;100.00;100818.59;5052381;28;20049;-80
2023/08/08 00:15:23;;;;;;;36.20;32.90;;;;;;;18.75;100.00;100815.66;5052188;28;20049;-80
2023/08/08 00:17:50;;;;;;;39.88;36.10;;;;;;;18.98;100.00;100832.50;5052485;28;20056;-88
2023/08/08 00:20:20;;;;;;;38.13;34.65;;;;;;;18.76;100.00;100838.81;5053332;28;20051;-88
2023/08/08 00:22:47;;;;;;;38.92;35.22;;;;;;;18.89;100.00;100848.31;5052840;28;20456;-88
2023/08/08 00:25:15;;;;;;;47.17;43.47;;;;;;;18.52;100.00;100840.19;5052687;28;20044;-86
2023/08/08 00:27:43;;;;;;;38.17;34.58;;;;;;;18.26;100.00;100833.78;5034791;28;20122;-88
2023/08/08 00:30:12;;;;;;;37.55;34.35;;;;;;;18.27;100.00;100830.00;5050178;28;20049;-88
2023/08/08 00:32:39;;;;;;;39.45;35.95;;;;;;;17.87;100.00;100839.25;5050164;28;20053;-87
2023/08/08 00:35:06;;;;;;;35.22;32.13;;;;;;;17.51;100.00;100844.16;5052091;28;20043;-87
2023/08/08 00:37:33;;;;;;;36.05;32.65;;;;;;;17.94;100.00;100842.56;5050085;28;20053;-88
2023/08/08 00:40:00;;;;;;;36.13;32.78;;;;;;;18.19;100.00;100825.09;5049679;28;20049;-88
2023/08/08 00:42:28;;;;;;;36.90;33.60;;;;;;;18.00;100.00;100827.31;5051803;28;20045;-88
2023/08/08 00:45:01;;;;;;;38.30;34.80;;;;;;;18.25;100.00;100826.78;5051559;28;20045;-88
2023/08/08 00:47:28;;;;;;;37.08;33.65;;;;;;;18.29;100.00;100817.13;5050888;28;20053;-79
2023/08/08 00:49:56;;;;;;;37.30;33.70;;;;;;;18.43;100.00;100809.47;5051245;28;20040;-84
2023/08/08 00:52:23;;;;;;;37.03;33.70;;;;;;;18.38;100.00;100809.41;5049378;28;20601;-88
2023/08/08 00:54:50;;;;;;;34.30;31.00;;;;;;;18.31;100.00;100821.19;5050379;28;20059;-79
2023/08/08 00:57:17;;;;;;;35.80;32.70;;;;;;;18.31;100.00;100815.00;5051273;28;20052;-79
2023/08/08 00:59:45;;;;;;;39.42;36.35;;;;;;;18.02;100.00;100815.25;5050810;28;20520;-79
2023/08/08 01:02:12;;;;;;;34.60;31.67;;;;;;;17.97;100.00;100814.38;5047848;28;20044;-79
2023/08/08 01:04:40;;;;;;;37.50;34.17;;;;;;;17.98;100.00;100830.25;5050281;28;20555;-79
2023/08/08 01:07:13;;;;;;;39.10;35.60;;;;;;;17.86;100.00;100829.59;5050045;28;20041;-79
2023/08/08 01:09:46;;;;;;;39.47;35.97;;;;;;;17.96;100.00;100829.69;5050679;28;20122;-87
2023/08/08 01:12:15;;;;;;;37.13;33.88;;;;;;;17.73;100.00;100836.13;5049473;28;20110;-79
2023/08/08 01:14:45;;;;;;;39.30;35.10;;;;;;;17.65;100.00;100841.94;5049131;28;20041;-79
2023/08/08 01:17:13;;;;;;;38.20;34.80;;;;;;;17.61;100.00;100849.69;5050351;28;20459;-79
2023/08/08 01:19:41;;;;;;;36.58;33.30;;;;;;;17.72;100.00;100855.97;5048152;28;20048;-79
2023/08/08 01:22:15;;;;;;;35.35;32.15;;;;;;;17.62;100.00;100856.66;5049687;28;20045;-79
2023/08/08 01:24:44;;;;;;;39.65;36.25;;;;;;;17.90;100.00;100859.44;5048878;28;20076;-79
2023/08/08 01:27:12;;;;;;;36.60;33.40;;;;;;;17.53;100.00;100862.72;5050063;28;20056;-79
2023/08/08 01:29:39;;;;;;;39.13;35.42;;;;;;;17.55;100.00;100865.94;5051209;28;20080;-87
2023/08/08 01:32:08;;;;;;;45.00;41.20;;;;;;;17.57;100.00;100871.91;5050963;28;20091;-87
2023/08/08 01:34:35;;;;;;;47.75;43.85;;;;;;;17.25;100.00;100888.66;5048598;28;20476;-87
2023/08/08 01:37:10;;;;;;;50.63;46.45;;;;;;;17.43;100.00;100890.25;5051155;28;20439;-87
2023/08/08 01:39:39;;;;;;;40.83;37.13;;;;;;;17.48;100.00;100901.03;5047666;28;20045;-79
2023/08/08 01:42:08;;;;;;;42.83;38.78;;;;;;;17.81;100.00;100902.88;5049457;28;20054;-79
2023/08/08 01:44:36;;;;;;;40.60;37.00;;;;;;;17.75;100.00;100909.19;5049199;28;20053;-79
2023/08/08 01:47:03;;;;;;;43.03;39.22;;;;;;;17.78;100.00;100908.75;5049366;28;20061;-79
2023/08/08 01:49:29;;;;;;;40.83;37.33;;;;;;;17.36;100.00;100924.50;5049819;28;20045;-79
2023/08/08 01:51:56;;;;;;;43.90;40.10;;;;;;;17.54;100.00;100931.47;5050137;28;20048;-79
2023/08/08 01:54:23;;;;;;;44.17;40.08;;;;;;;17.63;100.00;100932.69;5048079;28;20557;-79
2023/08/08 01:56:50;;;;;;;42.80;38.63;;;;;;;17.56;100.00;100940.91;5049675;28;20049;-79
2023/08/08 01:59:19;;;;;;;37.30;33.80;;;;;;;17.29;100.00;100954.19;5050021;28;20068;-87
2023/08/08 02:01:46;;;;;;;43.55;39.95;;;;;;;17.53;100.00;100952.16;5047640;28;20508;-79
2023/08/08 02:04:13;;;;;;;39.75;36.55;;;;;;;17.88;100.00;100945.66;5050500;28;20049;-79
2023/08/08 02:06:40;;;;;;;48.95;45.10;;;;;;;17.56;100.00;100943.59;5050216;28;20057;-79
2023/08/08 02:09:08;;;;;;;39.75;36.20;;;;;;;18.06;100.00;100940.00;5047099;28;20413;-79
2023/08/08 02:11:35;;;;;;;47.38;43.38;;;;;;;17.42;100.00;100945.00;5049471;28;20064;-79
2023/08/08 02:14:02;;;;;;;49.72;45.63;;;;;;;17.28;100.00;100946.41;5049484;28;20494;-79
2023/08/08 02:16:30;;;;;;;47.65;43.45;;;;;;;17.48;100.00;100938.63;5048586;28;20048;-87
2023/08/08 02:18:57;;;;;;;48.58;44.17;;;;;;;17.52;100.00;100934.41;5049122;28;20519;-79
2023/08/08 02:21:24;;;;;;;47.72;43.22;;;;;;;17.08;100.00;100936.16;5049896;28;20067;-87
2023/08/08 02:23:51;;;;;;;63.08;57.72;;;;;;;17.09;100.00;100943.13;5046054;28;20049;-79
2023/08/08 02:26:17;;;;;;;58.03;53.22;;;;;;;17.24;100.00;100934.50;5045148;28;20056;-79
2023/08/08 02:28:44;;;;;;;54.53;50.08;;;;;;;17.64;100.00;100926.25;5049514;28;20072;-79
2023/08/08 02:31:11;;;;;;;67.30;62.00;;;;;;;17.03;100.00;100926.13;5049446;28;20051;-79
2023/08/08 02:33:40;;;;;;;61.83;57.00;;;;;;;17.25;100.00;100912.81;5047591;28;20049;-79
2023/08/08 02:36:06;;;;;;;47.17;43.17;;;;;;;16.95;100.00;100923.88;5048816;28;20453;-80
2023/08/08 02:38:33;;;;;;;57.47;52.88;;;;;;;17.38;100.00;100919.72;5049213;28;20048;-79
2023/08/08 02:41:00;;;;;;;50.92;46.30;;;;;;;17.23;100.00;100924.84;5045393;28;20519;-79
2023/08/08 02:43:27;;;;;;;57.95;53.35;;;;;;;17.42;100.00;100928.88;5048459;28;20045;-79
2023/08/08 02:45:54;;;;;;;53.88;49.45;;;;;;;17.32;100.00;100929.56;5046229;28;20051;-79
2023/08/08 02:48:21;;;;;;;58.50;53.90;;;;;;;17.22;100.00;100931.28;5049250;28;20044;-80
2023/08/08 02:50:49;;;;;;;63.58;58.83;;;;;;;17.33;100.00;100941.09;5049098;28;20048;-79
2023/08/08 02:53:16;;;;;;;56.95;52.45;;;;;;;17.27;100.00;100934.84;5048265;28;20053;-79
2023/08/08 02:55:43;;;;;;;56.92;52.42;;;;;;;17.34;100.00;100929.31;5043895;28;20412;-79
2023/08/08 02:58:10;;;;;;;59.38;54.72;;;;;;;17.46;100.00;100927.34;5049233;28;20081;-79
2023/08/08 03:00:37;;;;;;;64.50;59.60;;;;;;;17.29;100.00;100921.19;5048961;28;20048;-79
2023/08/08 03:03:04;;;;;;;52.38;48.08;;;;;;;17.52;100.00;100928.22;5048379;28;20049;-79
2023/08/08 03:05:30;;;;;;;57.85;52.70;;;;;;;17.32;100.00;100931.44;5049010;28;20045;-79
2023/08/08 03:07:59;;;;;;;64.30;59.00;;;;;;;17.24;100.00;100935.31;5047967;28;20045;-79
2023/08/08 03:10:25;;;;;;;70.40;65.10;;;;;;;17.32;100.00;100937.59;5045904;28;20060;-79
2023/08/08 03:12:51;;;;;;;83.57;77.47;;;;;;;17.13;100.00;100952.34;5048242;28;20427;-79
2023/08/08 03:15:19;;;;;;;60.58;55.78;;;;;;;16.88;100.00;100966.97;5049077;28;20049;-79
2023/08/08 03:17:46;;;;;;;48.85;44.55;;;;;;;17.06;100.00;100971.25;5045802;28;20064;-86
2023/08/08 03:20:13;;;;;;;57.75;52.97;;;;;;;17.24;100.00;100958.66;5045865;28;20052;-87
2023/08/08 03:22:40;;;;;;;59.85;55.15;;;;;;;16.94;100.00;100966.00;5046270;28;20041;-87
2023/08/08 03:25:09;;;;;;;53.55;49.35;;;;;;;16.93;100.00;100967.03;5048857;28;20311;-87
2023/08/08 03:27:36;;;;;;;40.28;36.80;;;;;;;17.37;100.00;100958.34;5048997;28;20045;-79
2023/08/08 03:30:04;;;;;;;39.83;36.63;;;;;;;16.99;100.00;100949.16;5048363;28;20441;-79
2023/08/08 03:32:30;;;;;;;42.63;39.17;;;;;;;16.92;100.00;100957.34;5046041;28;20064;-87
2023/08/08 03:34:57;;;;;;;47.33;43.72;;;;;;;17.05;100.00;100960.78;5048654;28;20045;-88
2023/08/08 03:37:26;;;;;;;37.88;34.72;;;;;;;16.87;100.00;100969.88;5048222;28;20045;-87
2023/08/08 03:39:52;;;;;;;36.80;33.60;;;;;;;17.01;100.00;100987.28;5048985;28;20037;-86
2023/08/08 03:42:21;;;;;;;37.45;34.33;;;;;;;16.81;100.00;100986.94;5046620;28;20096;-87
2023/08/08 03:44:48;;;;;;;36.92;33.92;;;;;;;16.87;100.00;100980.59;5046203;28;20068;-87
2023/08/08 03:47:15;;;;;;;36.63;33.53;;;;;;;16.92;100.00;100983.38;5047949;28;20060;-87
2023/08/08 03:49:41;;;;;;;38.40;35.30;;;;;;;16.92;100.00;100996.78;5049108;28;20064;-85
2023/08/08 03:52:11;;;;;;;38.70;35.50;;;;;;;16.83;100.00;100982.94;5047729;28;20048;-79
2023/08/08 03:54:38;;;;;;;35.97;32.88;;;;;;;17.08;100.00;100995.19;5045293;28;20106;-79
2023/08/08 03:57:05;;;;;;;34.78;31.48;;;;;;;16.97;100.00;101004.91;5047420;28;20045;-79
2023/08/08 03:59:34;;;;;;;38.35;34.88;;;;;;;16.93;100.00;101003.78;5047973;28;20049;-79
2023/08/08 04:02:00;;;;;;;35.67;32.47;;;;;;;17.21;100.00;101000.22;5044673;28;20049;-79
2023/08/08 04:04:27;;;;;;;33.50;30.30;;;;;;;16.97;100.00;100994.19;4692594;28;10000139;-87
2023/08/08 04:06:54;;;;;;;33.20;30.30;;;;;;;17.10;100.00;100998.44;5042434;28;20049;-88
2023/08/08 04:09:21;;;;;;;35.72;32.53;;;;;;;17.06;100.00;100994.59;5045708;28;20044;-86
2023/08/08 04:11:48;;;;;;;33.72;30.58;;;;;;;16.89;100.00;101005.31;5045151;28;20060;-87
2023/08/08 04:14:15;;;;;;;31.50;28.48;;;;;;;16.57;100.00;100983.50;5041401;28;20455;-88
2023/08/08 04:16:43;;;;;;;31.83;29.02;;;;;;;16.90;100.00;100996.22;5044194;28;20052;-88
2023/08/08 04:19:10;;;;;;;32.42;29.63;;;;;;;17.01;100.00;101000.72;5045012;28;20048;-88
2023/08/08 04:21:37;;;;;;;32.22;29.42;;;;;;;16.86;100.00;101008.47;5045989;28;20369;-87
2023/08/08 04:24:05;;;;;;;30.35;27.70;;;;;;;17.03;100.00;101014.69;5043168;28;20127;-88
2023/08/08 04:26:32;;;;;;;31.88;29.27;;;;;;;16.70;100.00;101010.84;5044351;28;20056;-87
2023/08/08 04:28:59;;;;;;;31.30;28.70;;;;;;;16.63;100.00;101009.34;5042319;28;20057;-88
2023/08/08 04:31:28;;;;;;;30.88;28.27;;;;;;;17.25;100.00;101020.19;5042504;28;20041;-88
2023/08/08 04:34:00;;;;;;;30.77;28.38;;;;;;;17.44;100.00;101023.44;5043699;28;20052;-87
2023/08/08 04:36:27;;;;;;;31.48;28.92;;;;;;;17.14;100.00;101037.16;5044066;28;20053;-78
2023/08/08 04:38:53;;;;;;;29.75;27.40;;;;;;;17.31;100.00;101031.81;5043821;28;20059;-79
2023/08/08 04:41:20;;;;;;;30.17;27.88;;;;;;;17.31;100.00;101018.41;5047265;28;20416;-88
2023/08/08 04:43:47;;;;;;;31.10;28.50;;;;;;;17.10;100.00;101020.72;5044635;28;20056;-80
2023/08/08 04:46:14;;;;;;;32.00;29.40;;;;;;;16.95;100.00;101025.81;5047049;28;20056;-79
2023/08/08 04:48:41;;;;;;;30.98;28.48;;;;;;;16.83;100.00;101030.44;5047595;28;20056;-89
2023/08/08 04:51:10;;;;;;;30.65;28.13;;;;;;;16.92;100.00;101027.13;5048540;28;20059;-87
2023/08/08 04:53:37;;;;;;;32.28;29.67;;;;;;;16.84;100.00;101032.03;5048437;28;20156;-89
2023/08/08 04:56:04;;;;;;;32.88;30.17;;;;;;;16.69;100.00;101046.75;5046829;28;20129;-79
2023/08/08 04:58:31;;;;;;;31.92;29.42;;;;;;;16.80;100.00;101052.38;5046939;28;20073;-88
2023/08/08 05:00:58;;;;;;;31.27;28.77;;;;;;;16.78;100.00;101052.59;5045581;28;20045;-79
2023/08/08 05:03:25;;;;;;;31.75;29.05;;;;;;;16.98;100.00;101054.03;5026906;28;20052;-79
2023/08/08 05:05:52;;;;;;;29.02;26.73;;;;;;;16.76;100.00;101067.28;5045377;28;20424;-79
2023/08/08 05:08:21;;;;;;;32.15;29.55;;;;;;;16.96;100.00;101061.50;5048891;28;20518;-79
2023/08/08 05:10:47;;;;;;;32.38;29.67;;;;;;;17.05;100.00;101066.25;5049418;28;20048;-79
2023/08/08 05:13:14;;;;;;;30.52;27.77;;;;;;;17.12;100.00;101071.47;5047459;28;20063;-79
2023/08/08 05:15:41;;;;;;;30.13;27.63;;;;;;;17.16;100.00;101067.25;5045658;28;20044;-79
2023/08/08 05:18:08;;;;;;;31.65;29.02;;;;;;;16.91;100.00;101067.56;5047488;28;20044;-79
2023/08/08 05:20:35;;;;;;;30.15;27.75;;;;;;;17.09;100.00;101072.75;5050840;28;20076;-79
2023/08/08 05:23:02;;;;;;;32.42;29.60;;;;;;;16.94;100.00;101078.66;5050397;28;20430;-79
2023/08/08 05:25:30;;;;;;;33.13;30.50;;;;;;;17.26;100.00;101080.03;5049838;28;20409;-79
2023/08/08 05:27:57;;;;;;;34.65;31.80;;;;;;;17.50;100.00;101072.66;5050364;28;20071;-89
2023/08/08 05:30:24;;;;;;;32.75;30.25;;;;;;;17.32;100.00;101074.50;5048604;28;20068;-88
2023/08/08 05:32:51;;;;;;;34.63;32.15;;;;;;;17.48;100.00;101066.72;5050421;28;20045;-88
2023/08/08 05:35:18;;;;;;;34.33;31.42;;;;;;;17.31;100.00;101064.03;5051779;28;20515;-88
2023/08/08 05:37:45;;;;;;;32.22;29.63;;;;;;;17.21;100.00;101074.56;5051815;28;20049;-88
2023/08/08 05:40:12;;;;;;;32.22;29.42;;;;;;;17.32;100.00;101092.50;5047702;28;20045;-79
2023/08/08 05:42:40;;;;;;;29.65;27.00;;;;;;;17.26;100.00;101091.59;5051001;28;20451;-88
2023/08/08 05:45:09;;;;;;;28.48;26.17;;;;;;;17.25;100.00;101086.47;5050616;28;20040;-86
2023/08/08 05:47:36;;;;;;;29.98;27.67;;;;;;;17.33;100.00;101100.28;5049289;28;20049;-87
2023/08/08 05:50:03;;;;;;;29.65;27.30;;;;;;;16.94;100.00;101110.88;5049996;28;20048;-80
2023/08/08 05:52:30;;;;;;;30.65;28.05;;;;;;;17.15;100.00;101112.03;5050696;28;20098;-88
2023/08/08 05:54:58;;;;;;;31.92;29.33;;;;;;;17.34;100.00;101104.63;5049141;28;20052;-80
2023/08/08 05:57:25;;;;;;;31.13;28.63;;;;;;;17.52;100.00;101087.47;5049129;28;20106;-79
2023/08/08 05:59:54;;;;;;;30.80;28.30;;;;;;;17.52;100.00;101083.97;5048619;28;20052;-79
2023/08/08 06:02:21;;;;;;;28.98;26.50;;;;;;;17.06;100.00;101118.03;5049379;28;20442;-79
2023/08/08 06:04:47;;;;;;;30.00;27.27;;;;;;;17.07;100.00;101133.91;5048591;28;20103;-79
2023/08/08 06:07:14;;;;;;;30.20;27.63;;;;;;;17.31;100.00;101125.78;5049726;28;20040;-79
2023/08/08 06:09:41;;;;;;;27.95;25.35;;;;;;;17.90;100.00;101128.13;5049540;28;20055;-80
2023/08/08 06:12:09;;;;;;;29.38;26.65;;;;;;;17.07;100.00;101125.06;5048600;28;20052;-80
2023/08/08 06:14:36;;;;;;;29.38;26.77;;;;;;;17.18;100.00;101138.41;5048164;28;20041;-79
2023/08/08 06:17:05;;;;;;;28.85;26.55;;;;;;;17.76;100.00;101146.41;5047838;28;20040;-79
2023/08/08 06:19:32;;;;;;;32.72;30.00;;;;;;;17.69;100.00;101157.31;5045843;28;20041;-79
2023/08/08 06:21:59;;;;;;;32.38;29.67;;;;;;;17.18;100.00;101153.69;5047639;28;20428;-79
2023/08/08 06:24:25;;;;;;;32.78;30.17;;;;;;;17.15;100.00;101159.53;5046301;28;20053;-79
2023/08/08 06:26:53;;;;;;;34.17;31.08;;;;;;;17.01;100.00;101160.88;5047962;28;20428;-79
2023/08/08 06:29:19;;;;;;;31.42;28.63;;;;;;;17.24;100.00;101160.78;5046085;28;20500;-87
2023/08/08 06:31:46;;;;;;;31.60;28.80;;;;;;;17.13;100.00;101157.13;5046902;28;20055;-86
2023/08/08 06:34:15;;;;;;;33.17;30.48;;;;;;;17.04;100.00;101165.78;5044739;28;20053;-86
2023/08/08 06:36:42;;;;;;;34.10;31.20;;;;;;;17.06;100.00;101169.03;5044627;28;20078;-79
2023/08/08 06:39:11;;;;;;;34.22;31.33;;;;;;;17.26;100.00;101174.81;5047438;28;20051;-80
2023/08/08 06:41:38;;;;;;;33.45;30.55;;;;;;;17.35;100.00;101169.88;5047086;28;20067;-80
2023/08/08 06:44:05;;;;;;;32.55;29.85;;;;;;;17.29;100.00;101157.41;5048573;28;20492;-80
2023/08/08 06:46:32;;;;;;;32.13;29.45;;;;;;;17.22;100.00;101156.75;5046625;28;20455;-79
2023/08/08 06:48:59;;;;;;;34.20;31.30;;;;;;;17.17;100.00;101166.31;5048727;28;20044;-79
2023/08/08 06:51:28;;;;;;;33.03;30.23;;;;;;;17.18;100.00;101159.88;5049330;28;20045;-79
2023/08/08 06:53:55;;;;;;;33.92;30.83;;;;;;;17.24;100.00;101152.75;5048899;28;20064;-79
2023/08/08 06:56:22;;;;;;;34.97;31.73;;;;;;;17.35;100.00;101156.44;5046399;28;20062;-80
2023/08/08 06:58:49;;;;;;;35.08;31.98;;;;;;;17.46;100.00;101160.13;5049060;28;20045;-79
2023/08/08 07:01:16;;;;;;;34.20;31.02;;;;;;;17.52;100.00;101157.31;5046253;28;20049;-79
2023/08/08 07:03:43;;;;;;;33.10;30.15;;;;;;;17.50;100.00;101159.41;5045979;28;20063;-79
2023/08/08 07:06:10;;;;;;;31.33;28.58;;;;;;;17.31;100.00;101153.44;5049129;28;20055;-87
2023/08/08 07:08:39;;;;;;;33.20;30.40;;;;;;;17.38;100.00;101143.34;5049389;28;20045;-79
2023/08/08 07:11:07;;;;;;;32.58;29.80;;;;;;;17.52;100.00;101127.75;5048477;28;20049;-79
2023/08/08 07:13:34;;;;;;;32.92;30.02;;;;;;;17.43;100.00;101131.91;5049182;28;20067;-85
2023/08/08 07:16:00;;;;;;;33.33;30.35;;;;;;;17.51;100.00;101141.41;5049472;28;20056;-86
2023/08/08 07:18:27;;;;;;;34.90;31.52;;;;;;;17.46;100.00;101131.41;5047688;28;20087;-80
2023/08/08 07:21:16;;;;;;;33.58;30.80;;;;;;;17.23;100.00;101131.53;5049262;28;20045;-80
2023/08/08 07:23:44;;;;;;;35.25;32.25;;;;;;;17.35;100.00;101137.66;5049107;28;20088;-80
2023/08/08 07:26:11;;;;;;;38.20;34.80;;;;;;;17.42;100.00;101140.19;5048307;28;20432;-80
2023/08/08 07:28:39;;;;;;;35.38;32.38;;;;;;;17.50;100.00;101161.28;5045161;28;20051;-80
2023/08/08 07:31:06;;;;;;;35.22;32.20;;;;;;;17.27;100.00;101157.63;5048768;28;20048;-79
2023/08/08 07:33:32;;;;;;;34.97;32.08;;;;;;;17.46;100.00;101173.53;5048408;28;20049;-79
2023/08/08 07:36:00;;;;;;;32.42;29.70;;;;;;;17.34;100.00;101171.75;5048648;28;20045;-79
2023/08/08 07:38:26;;;;;;;31.70;29.10;;;;;;;17.67;100.00;101156.75;5048625;28;20041;-80
2023/08/08 07:40:55;;;;;;;31.52;28.70;;;;;;;17.87;100.00;101163.56;5046291;28;20405;-85
2023/08/08 07:43:22;;;;;;;34.42;31.27;;;;;;;17.36;100.00;101166.94;5048392;28;20045;-86
2023/08/08 07:45:49;;;;;;;33.85;30.90;;;;;;;18.13;100.00;101167.47;5049023;28;20048;-86
2023/08/08 07:48:16;;;;;;;30.42;27.90;;;;;;;18.46;100.00;101161.25;5048379;28;20045;-80
2023/08/08 07:50:43;;;;;;;29.83;27.20;;;;;;;18.00;100.00;101150.63;5046942;28;20041;-86
2023/08/08 07:53:09;;;;;;;31.35;28.73;;;;;;;18.56;100.00;101160.56;5048343;28;20048;-86
2023/08/08 07:55:36;;;;;;;29.08;26.80;;;;;;;18.48;100.00;101159.09;5046630;28;20119;-86
2023/08/08 07:58:05;;;;;;;29.42;27.08;;;;;;;18.60;100.00;101167.88;5046597;28;20094;-86
2023/08/08 08:00:32;;;;;;;29.67;27.38;;;;;;;17.97;100.00;101156.50;5047412;28;20052;-86
2023/08/08 08:02:58;;;;;;;29.67;27.33;;;;;;;18.48;100.00;101151.03;5048596;28;20049;-86
2023/08/08 08:05:25;;;;;;;28.40;25.98;;;;;;;18.87;100.00;101167.19;5048541;28;20048;-85
2023/08/08 08:07:52;;;;;;;28.80;26.52;;;;;;;18.46;100.00;101159.38;5047452;28;20047;-80
2023/08/08 08:10:19;;;;;;;30.55;28.05;;;;;;;19.05;100.00;101161.50;5047378;28;20523;-80
2023/08/08 08:12:46;;;;;;;27.45;25.30;;;;;;;18.84;100.00;101160.44;5049014;28;20049;-80
2023/08/08 08:15:14;;;;;;;26.08;23.98;;;;;;;19.37;100.00;101148.13;5051711;28;20052;-80
2023/08/08 08:17:41;;;;;;;25.83;23.80;;;;;;;19.31;100.00;101146.44;5049651;28;20078;-80
2023/08/08 08:20:11;;;;;;;27.38;25.27;;;;;;;18.57;100.00;101148.75;5052399;28;20056;-86
2023/08/08 08:22:39;;;;;;;26.08;24.13;;;;;;;19.01;100.00;101146.09;5050625;28;20128;-85
2023/08/08 08:25:09;;;;;;;24.60;22.65;;;;;;;19.03;100.00;101139.38;5051989;28;20076;-85
2023/08/08 08:27:36;;;;;;;23.45;21.55;;;;;;;19.25;100.00;101125.91;5052412;28;20045;-86
2023/08/08 08:30:04;;;;;;;26.30;24.40;;;;;;;18.72;100.00;101146.25;5051022;28;20137;-85
2023/08/08 08:32:34;;;;;;;24.80;22.90;;;;;;;20.30;100.00;101131.66;5052742;28;20041;-87
2023/08/08 08:35:02;;;;;;;26.00;23.75;;;;;;;19.53;100.00;101138.28;5053360;28;20041;-85
2023/08/08 08:37:29;;;;;;;24.95;22.85;;;;;;;19.79;100.00;101131.28;5050809;28;20049;-87
2023/08/08 08:39:56;;;;;;;25.48;23.45;;;;;;;19.80;100.00;101132.09;5052008;28;20140;-87
2023/08/08 08:42:24;;;;;;;24.85;22.88;;;;;;;19.99;100.00;101127.13;5052456;28;20049;-87
2023/08/08 08:44:51;;;;;;;23.73;21.50;;;;;;;19.70;100.00;101134.69;5050370;28;20045;-87
2023/08/08 08:47:21;;;;;;;23.25;21.27;;;;;;;20.88;100.00;101131.69;5052577;28;20056;-86
2023/08/08 08:49:49;;;;;;;23.10;21.30;;;;;;;20.18;100.00;101128.31;5049494;28;20057;-86
2023/08/08 08:52:17;;;;;;;22.67;20.77;;;;;;;20.99;100.00;101133.31;5052857;28;20048;-85
2023/08/08 08:54:43;;;;;;;22.27;20.33;;;;;;;21.03;100.00;101120.94;5052037;28;20053;-87
2023/08/08 08:57:10;;;;;;;21.80;20.00;;;;;;;20.47;100.00;101120.66;5050893;28;20120;-87
2023/08/08 08:59:37;;;;;;;22.33;20.73;;;;;;;20.76;100.00;101128.41;5052851;28;20041;-87
2023/08/08 09:02:05;;;;;;;24.08;22.17;;;;;;;21.11;100.00;101127.69;5051741;28;20045;-87
2023/08/08 09:04:34;;;;;;;23.88;21.98;;;;;;;22.01;100.00;101121.84;5051909;28;20059;-85
2023/08/08 09:07:03;;;;;;;23.25;21.08;;;;;;;21.11;100.00;101122.28;5051514;28;20061;-86
2023/08/08 09:09:32;;;;;;;23.90;21.90;;;;;;;20.25;100.00;101128.91;5050651;28;20459;-85
2023/08/08 09:11:59;;;;;;;22.83;20.92;;;;;;;20.82;100.00;101124.66;5050140;28;20051;-86
2023/08/08 09:14:28;;;;;;;22.75;20.95;;;;;;;21.50;100.00;101124.56;5048220;28;20045;-87
2023/08/08 09:16:56;;;;;;;23.58;21.92;;;;;;;21.78;100.00;101114.28;5045288;28;20053;-87
2023/08/08 09:19:24;;;;;;;23.80;22.10;;;;;;;21.90;100.00;101109.41;5051397;28;20076;-87
2023/08/08 09:21:52;;;;;;;24.20;22.40;;;;;;;22.08;100.00;101116.94;5045122;28;20049;-86
2023/08/08 09:24:21;;;;;;;24.63;22.83;;;;;;;22.14;100.00;101112.34;5050433;28;20415;-86
2023/08/08 09:26:48;;;;;;;24.10;22.30;;;;;;;21.53;100.00;101115.91;5048496;28;20067;-81
2023/08/08 09:29:16;;;;;;;23.42;21.50;;;;;;;22.33;100.00;101110.72;5051387;28;20056;-80
2023/08/08 09:31:43;;;;;;;23.35;21.60;;;;;;;22.24;100.00;101108.84;5051819;28;20935;-87
2023/08/08 09:34:10;;;;;;;23.75;22.05;;;;;;;23.06;100.00;101118.28;5052176;28;20431;-85
2023/08/08 09:36:37;;;;;;;25.08;23.17;;;;;;;23.00;100.00;101113.19;5048546;28;20045;-86
2023/08/08 09:39:05;;;;;;;25.10;23.25;;;;;;;22.27;100.00;101109.13;5048719;28;20254;-85
2023/08/08 09:41:33;;;;;;;24.00;22.40;;;;;;;23.06;100.00;101112.06;5051011;28;20186;-86
2023/08/08 09:44:01;;;;;;;24.38;22.35;;;;;;;22.90;100.00;101113.19;5050190;28;20132;-86
2023/08/08 09:46:30;;;;;;;24.90;23.30;;;;;;;21.77;100.00;101105.38;5049821;28;20072;-86
2023/08/08 09:48:59;;;;;;;24.00;22.50;;;;;;;22.21;100.00;101107.50;5047629;28;20049;-85
2023/08/08 09:51:26;;;;;;;24.60;23.10;;;;;;;22.25;100.00;101099.66;5052436;28;20041;-86
2023/08/08 09:53:54;;;;;;;23.90;22.35;;;;;;;21.79;100.00;101097.81;5049834;28;20060;-86
2023/08/08 09:56:22;;;;;;;24.30;22.65;;;;;;;22.34;100.00;101100.72;5047562;28;20041;-86
2023/08/08 09:58:51;;;;;;;23.95;22.05;;;;;;;22.66;100.00;101105.72;5048815;28;20060;-85
2023/08/08 10:01:20;;;;;;;23.52;21.83;;;;;;;23.14;100.00;101099.81;5049409;28;20060;-86
2023/08/08 10:03:46;;;;;;;24.60;22.80;;;;;;;23.49;100.00;101098.75;5048466;28;20061;-85
2023/08/08 10:06:14;;;;;;;23.92;22.33;;;;;;;23.10;100.00;101096.88;5051440;28;20141;-86
2023/08/08 10:08:42;;;;;;;23.60;22.00;;;;;;;24.05;100.00;101102.88;5049371;28;20461;-85
2023/08/08 10:11:10;;;;;;;22.63;21.13;;;;;;;23.03;100.00;101110.72;5047425;28;20057;-86
2023/08/08 10:13:37;;;;;;;23.00;21.50;;;;;;;24.38;100.00;101104.69;5051301;28;20055;-85
2023/08/08 10:16:09;;;;;;;23.17;21.58;;;;;;;23.74;100.00;101090.44;5051082;28;20063;-84
2023/08/08 10:18:36;;;;;;;23.42;21.90;;;;;;;23.22;100.00;101091.91;5049122;28;20060;-85
2023/08/08 10:21:05;;;;;;;24.13;22.55;;;;;;;23.18;100.00;101101.69;5050657;28;20152;-85
2023/08/08 10:23:38;;;;;;;24.75;23.08;;;;;;;22.57;100.00;101100.09;5048688;28;20045;-85
2023/08/08 10:26:05;;;;;;;24.55;22.85;;;;;;;22.65;100.00;101095.97;5050416;28;20045;-84
2023/08/08 10:28:34;;;;;;;24.05;22.27;;;;;;;24.19;100.00;101082.94;5050288;28;20045;-85
2023/08/08 10:31:04;;;;;;;24.10;22.40;;;;;;;23.17;100.00;101089.22;5050141;28;20045;-84
2023/08/08 10:33:42;;;;;;;24.00;22.33;;;;;;;24.28;100.00;101088.53;5049392;28;20502;-85
2023/08/08 10:36:09;;;;;;;22.20;20.73;;;;;;;24.07;100.00;101087.94;5046594;28;20094;-84
2023/08/08 10:38:41;;;;;;;23.35;21.95;;;;;;;24.79;100.00;101079.78;5050708;28;20041;-86
2023/08/08 10:41:11;;;;;;;24.63;23.13;;;;;;;24.13;100.00;101075.94;5050282;28;20049;-87
2023/08/08 10:43:38;;;;;;;25.17;23.58;;;;;;;25.54;100.00;101073.50;5046699;28;20049;-85
2023/08/08 10:46:05;;;;;;;25.13;23.33;;;;;;;24.76;100.00;101082.28;5045012;28;20047;-85
2023/08/08 10:48:32;;;;;;;25.42;23.55;;;;;;;24.95;100.00;101080.38;5050147;28;20049;-84
2023/08/08 10:51:01;;;;;;;23.95;22.45;;;;;;;24.24;100.00;101076.66;5050878;28;20056;-84
2023/08/08 10:53:29;;;;;;;25.10;23.35;;;;;;;25.22;100.00;101070.78;5047058;28;20570;-86
2023/08/08 10:56:01;;;;;;;25.63;23.70;;;;;;;24.93;100.00;101077.13;5047288;28;20056;-86
2023/08/08 10:58:39;;;;;;;24.55;22.98;;;;;;;24.99;100.00;101069.72;5049783;28;20056;-86
2023/08/08 11:01:07;;;;;;;22.40;20.90;;;;;;;25.24;100.00;101063.16;5046974;28;20052;-86
2023/08/08 11:03:36;;;;;;;25.35;23.65;;;;;;;24.86;100.00;101065.84;5047380;28;20528;-80